Time;durP1;ratioP1;P1;durP2;ratioP2;P2;SDS_P1;SDS_P2;PMS_P1;PMS_P2;Temp;Humidity;BMP_temperature;BMP_pressure;BME280_temperature;BME280_humidity;BME280_pressure;Samples;Min_cycle;Max_cycle;Signal;HPM_P1;HPM_P2
2021/03/16 00:02:03;;;;;;;;;;;;;;;8.59;49.22;100765.44;4812613;29;19953;-79
2021/03/16 00:04:33;;;;;;;;;;;;;;;8.58;49.62;100771.59;4811853;29;19937;-78
2021/03/16 00:07:24;;;;;;;;;;;;;;;8.55;49.84;100771.66;4813757;29;20398;-80
2021/03/16 00:09:50;;;;;;;;;;;;;;;8.54;49.78;100775.19;4814241;29;19933;-79
2021/03/16 00:12:17;;;;;;;;;;;;;;;8.53;50.00;100775.22;4811788;29;19944;-79
2021/03/16 00:14:44;;;;;;;;;;;;;;;8.50;49.51;100780.53;4812927;29;19985;-79
2021/03/16 00:17:12;;;;;;;;;;;;;;;8.47;50.33;100784.97;4814269;29;19972;-79
2021/03/16 00:19:39;;;;;;;;;;;;;;;8.46;50.04;100785.88;4814277;29;19928;-79
2021/03/16 00:22:07;;;;;;;;;;;;;;;8.47;50.00;100797.31;4815779;29;19952;-79
2021/03/16 00:24:34;;;;;;;;;;;;;;;8.42;50.43;100799.13;4814603;29;20002;-78
2021/03/16 00:27:02;;;;;;;;;;;;;;;8.41;50.10;100794.75;4807930;29;20441;-80
2021/03/16 00:29:29;;;;;;;;;;;;;;;8.39;50.56;100801.78;4793505;29;19968;-80
2021/03/16 00:31:56;;;;;;;;;;;;;;;8.38;50.55;100806.22;4814487;29;19982;-80
2021/03/16 00:34:23;;;;;;;;;;;;;;;8.37;50.28;100817.66;4814632;29;20011;-80
2021/03/16 00:36:50;;;;;;;;;;;;;;;8.38;50.69;100822.03;4813530;29;20436;-81
2021/03/16 00:39:17;;;;;;;;;;;;;;;8.38;50.75;100823.78;4811430;29;20035;-80
2021/03/16 00:41:44;;;;;;;;;;;;;;;8.38;50.15;100829.94;4809293;29;19989;-81
2021/03/16 00:44:11;;;;;;;;;;;;;;;8.38;49.89;100832.56;4798777;29;20016;-81
2021/03/16 00:46:38;;;;;;;;;;;;;;;8.38;50.59;100831.69;4813891;29;20034;-81
2021/03/16 00:49:06;;;;;;;;;;;;;;;8.36;50.57;100828.22;4813322;29;19937;-80
2021/03/16 00:51:33;;;;;;;;;;;;;;;8.38;50.11;100831.69;4814637;29;19944;-80
2021/03/16 00:54:00;;;;;;;;;;;;;;;8.45;50.09;100828.94;4810305;29;20020;-80
2021/03/16 00:56:30;;;;;;;;;;;;;;;8.58;48.38;100828.75;4807644;29;19968;-80
2021/03/16 00:58:58;;;;;;;;;;;;;;;8.64;47.41;100832.16;4811293;29;19932;-80
2021/03/16 01:01:25;;;;;;;;;;;;;;;8.71;46.39;100837.31;4812231;29;19932;-80
2021/03/16 01:03:52;;;;;;;;;;;;;;;8.74;45.42;100843.38;4811349;29;19960;-80
2021/03/16 01:06:19;;;;;;;;;;;;;;;8.78;44.71;100842.44;4815126;29;20391;-80
2021/03/16 01:08:45;;;;;;;;;;;;;;;8.76;45.29;100844.25;4809370;29;19999;-80
2021/03/16 01:11:12;;;;;;;;;;;;;;;8.75;45.92;100857.47;4809219;29;20027;-80
2021/03/16 01:13:39;;;;;;;;;;;;;;;8.73;46.08;100857.50;4817071;29;19929;-80
2021/03/16 01:16:08;;;;;;;;;;;;;;;8.74;46.34;100853.06;4811704;29;20389;-80
2021/03/16 01:18:34;;;;;;;;;;;;;;;8.79;45.75;100867.06;4812074;29;20000;-80
2021/03/16 01:21:01;;;;;;;;;;;;;;;8.84;44.95;100856.41;4816197;29;19937;-80
2021/03/16 01:23:28;;;;;;;;;;;;;;;8.89;44.21;100858.09;4810660;29;19933;-80
2021/03/16 01:26:03;;;;;;;;;;;;;;;8.93;43.21;100864.16;4816628;29;20433;-80
2021/03/16 01:28:29;;;;;;;;;;;;;;;8.96;42.85;100854.41;4815526;29;20485;-80
2021/03/16 01:30:57;;;;;;;;;;;;;;;9.04;42.19;100858.69;4819116;29;19972;-80
2021/03/16 01:33:26;;;;;;;;;;;;;;;9.02;41.97;100865.75;4815227;29;19932;-80
2021/03/16 01:35:53;;;;;;;;;;;;;;;9.06;41.64;100860.41;4813459;29;19932;-80
2021/03/16 01:38:20;;;;;;;;;;;;;;;9.05;41.29;100870.97;4811575;29;19929;-79
2021/03/16 01:40:47;;;;;;;;;;;;;;;9.01;41.39;100859.63;4816141;29;20302;-79
2021/03/16 01:43:15;;;;;;;;;;;;;;;8.85;41.65;100861.69;4816114;29;19963;-80
2021/03/16 01:45:45;;;;;;;;;;;;;;;8.73;41.97;100870.69;4816118;29;20052;-79
2021/03/16 01:48:14;;;;;;;;;;;;;;;8.63;42.37;100869.09;4812403;29;19928;-79
2021/03/16 01:50:45;;;;;;;;;;;;;;;8.57;43.24;100870.06;4813212;29;19929;-79
2021/03/16 01:53:12;;;;;;;;;;;;;;;8.51;43.67;100870.19;4811709;29;20441;-79
2021/03/16 01:55:46;;;;;;;;;;;;;;;8.46;44.23;100872.03;4815656;29;20029;-79
2021/03/16 01:58:13;;;;;;;;;;;;;;;8.43;44.65;100869.38;4814967;29;19976;-79
2021/03/16 02:00:59;;;;;;;;;;;;;;;8.39;44.72;100870.34;4814740;29;20305;-79
2021/03/16 02:03:46;;;;;;;;;;;;;;;8.36;45.19;100873.03;4812396;29;19944;-79
2021/03/16 02:06:37;;;;;;;;;;;;;;;8.31;45.70;100868.72;4811903;29;19940;-79
2021/03/16 02:09:28;;;;;;;;;;;;;;;8.27;45.56;100879.31;4816103;29;19952;-79
2021/03/16 02:12:17;;;;;;;;;;;;;;;8.24;45.89;100889.91;4816306;29;19956;-79
2021/03/16 02:15:06;;;;;;;;;;;;;;;8.21;46.41;100887.31;4816187;29;19948;-80
2021/03/16 02:17:55;;;;;;;;;;;;;;;8.14;46.52;100886.53;4812736;29;19940;-79
2021/03/16 02:20:59;;;;;;;;;;;;;;;8.12;46.99;100890.97;4811287;29;19959;-79
2021/03/16 02:23:59;;;;;;;;;;;;;;;8.08;47.41;100890.13;4816318;29;19950;-79
2021/03/16 02:27:07;;;;;;;;;;;;;;;7.99;48.06;100887.63;4817283;29;19936;-79
2021/03/16 02:29:56;;;;;;;;;;;;;;;7.96;48.01;100893.81;4814544;29;19936;-79
2021/03/16 02:32:43;;;;;;;;;;;;;;;7.93;48.19;100892.97;4810620;29;19943;-78
2021/03/16 02:35:45;;;;;;;;;;;;;;;7.91;48.03;100902.69;4811462;29;19997;-79
2021/03/16 02:38:31;;;;;;;;;;;;;;;7.85;48.62;100906.25;4815579;29;19959;-80
2021/03/16 02:41:17;;;;;;;;;;;;;;;7.82;48.67;100908.94;4814728;29;20045;-79
2021/03/16 02:44:04;;;;;;;;;;;;;;;7.80;48.41;100908.06;4818723;29;19936;-79
2021/03/16 02:46:53;;;;;;;;;;;;;;;7.79;49.06;100911.63;4810570;29;20024;-79
2021/03/16 02:49:43;;;;;;;;;;;;;;;7.77;49.18;100918.66;4818041;29;20009;-79
2021/03/16 02:52:29;;;;;;;;;;;;;;;7.74;49.15;100921.34;4812671;29;19985;-80
2021/03/16 02:55:43;;;;;;;;;;;;;;;7.72;49.15;100931.03;4815605;29;19939;-79
2021/03/16 02:58:29;;;;;;;;;;;;;;;7.70;49.06;100927.56;4811454;29;20044;-80
2021/03/16 03:01:15;;;;;;;;;;;;;;;7.71;49.04;100932.78;4810287;29;20454;-79
2021/03/16 03:04:02;;;;;;;;;;;;;;;7.70;49.44;100931.03;4814492;29;20711;-78
2021/03/16 03:06:49;;;;;;;;;;;;;;;7.69;49.26;100938.97;4817501;29;19936;-79
2021/03/16 03:09:34;;;;;;;;;;;;;;;7.68;49.66;100939.84;4812901;29;19993;-79
2021/03/16 03:12:20;;;;;;;;;;;;;;;7.66;49.53;100945.13;4813388;29;19942;-79
2021/03/16 03:15:06;;;;;;;;;;;;;;;7.67;49.55;100946.91;4811183;29;20000;-79
2021/03/16 03:17:52;;;;;;;;;;;;;;;7.68;49.81;100942.47;4813767;29;19951;-79
2021/03/16 03:21:02;;;;;;;;;;;;;;;7.63;49.87;100951.31;4812269;29;19982;-79
2021/03/16 03:23:51;;;;;;;;;;;;;;;7.64;49.72;100960.97;4814327;29;19943;-79
2021/03/16 03:26:42;;;;;;;;;;;;;;;7.62;49.97;100954.84;4811270;29;20366;-79
2021/03/16 03:29:29;;;;;;;;;;;;;;;7.62;50.06;100954.84;4806741;29;19939;-79
2021/03/16 03:32:17;;;;;;;;;;;;;;;7.61;50.10;100965.38;4814056;29;19956;-79
2021/03/16 03:35:03;;;;;;;;;;;;;;;7.60;49.89;100963.63;4816259;29;19944;-79
2021/03/16 03:37:49;;;;;;;;;;;;;;;7.60;50.00;100972.44;4816877;29;19939;-79
2021/03/16 03:41:00;;;;;;;;;;;;;;;7.59;50.27;100968.03;4812736;29;19963;-79
2021/03/16 03:43:47;;;;;;;;;;;;;;;7.57;50.44;100971.59;4809347;29;20073;-79
2021/03/16 03:46:33;;;;;;;;;;;;;;;7.57;50.43;100979.47;4813601;29;19948;-79
2021/03/16 03:49:20;;;;;;;;;;;;;;;7.56;50.50;100981.22;4815788;29;20475;-79
2021/03/16 03:52:08;;;;;;;;;;;;;;;7.54;50.51;100979.50;4818918;29;19948;-79
2021/03/16 03:54:53;;;;;;;;;;;;;;;7.54;50.72;100982.13;4812183;29;20337;-79
2021/03/16 03:57:40;;;;;;;;;;;;;;;7.53;50.60;100983.03;4807922;29;19947;-79
2021/03/16 04:00:51;;;;;;;;;;;;;;;7.51;50.43;100987.44;4812842;29;20412;-79
2021/03/16 04:03:37;;;;;;;;;;;;;;;7.48;50.47;100994.50;4811943;29;20036;-79
2021/03/16 04:06:23;;;;;;;;;;;;;;;7.67;49.41;100998.66;4814799;29;19940;-79
2021/03/16 04:09:08;;;;;;;;;;;;;;;7.76;47.67;100994.19;4812653;29;19944;-78
2021/03/16 04:11:53;;;;;;;;;;;;;;;7.87;47.04;100993.19;4809584;29;19936;-79
2021/03/16 04:14:39;;;;;;;;;;;;;;;7.92;45.52;101004.53;4812418;29;19936;-79
2021/03/16 04:17:25;;;;;;;;;;;;;;;7.98;44.71;101007.97;4813245;29;20001;-79
2021/03/16 04:23:32;;;;;;;;;;;;;;;8.13;43.34;101014.78;4811212;29;20502;-78
2021/03/16 04:26:17;;;;;;;;;;;;;;;8.14;42.48;101013.91;4810813;29;20391;-80
2021/03/16 04:29:02;;;;;;;;;;;;;;;8.20;42.16;101023.50;4812863;29;20073;-78
2021/03/16 04:31:48;;;;;;;;;;;;;;;8.15;42.33;101020.03;4813875;29;19936;-79
2021/03/16 04:34:33;;;;;;;;;;;;;;;8.01;43.90;101020.22;4813094;29;20049;-79
2021/03/16 04:37:20;;;;;;;;;;;;;;;7.96;44.84;101030.81;4811521;29;20421;-79
2021/03/16 04:40:06;;;;;;;;;;;;;;;7.97;45.40;101029.94;4809588;29;20082;-79
2021/03/16 04:42:51;;;;;;;;;;;;;;;8.07;44.31;101035.09;4813730;29;19944;-79
2021/03/16 04:45:43;;;;;;;;;;;;;;;8.10;43.52;101038.56;4812938;29;19955;-80
2021/03/16 04:48:28;;;;;;;;;;;;;;;8.16;42.30;101040.25;4813063;29;20000;-79
2021/03/16 04:51:14;;;;;;;;;;;;;;;8.20;42.15;101041.94;4809571;29;19952;-79
2021/03/16 04:54:00;;;;;;;;;;;;;;;8.21;41.39;101051.59;4809846;29;19939;-79
2021/03/16 04:56:46;;;;;;;;;;;;;;;8.24;40.98;101048.91;4813579;29;20028;-80
2021/03/16 04:59:31;;;;;;;;;;;;;;;8.15;41.29;101056.94;4811916;29;20342;-80
2021/03/16 05:02:16;;;;;;;;;;;;;;;7.97;41.95;101050.13;4813688;29;19940;-78
2021/03/16 05:05:05;;;;;;;;;;;;;;;7.86;42.47;101059.91;4812304;29;19939;-79
2021/03/16 05:07:50;;;;;;;;;;;;;;;7.79;42.87;101059.13;4808823;29;20011;-79
2021/03/16 05:11:01;;;;;;;;;;;;;;;7.73;43.81;101073.19;4812591;29;19940;-82
2021/03/16 05:13:47;;;;;;;;;;;;;;;7.69;44.32;101076.75;4811358;29;19944;-80
2021/03/16 05:16:33;;;;;;;;;;;;;;;7.67;44.36;101083.81;4812549;29;19947;-80
2021/03/16 05:19:18;;;;;;;;;;;;;;;7.64;44.71;101083.84;4811732;29;20069;-77
2021/03/16 05:22:04;;;;;;;;;;;;;;;7.63;45.17;101093.50;4808211;29;19944;-79
2021/03/16 05:24:49;;;;;;;;;;;;;;;7.61;45.51;101097.03;4808369;29;19939;-79
2021/03/16 05:27:34;;;;;;;;;;;;;;;7.58;46.15;101097.94;4812163;29;20056;-79
2021/03/16 05:30:45;;;;;;;;;;;;;;;7.57;45.98;101098.81;4813546;29;19940;-80
2021/03/16 05:33:31;;;;;;;;;;;;;;;7.55;46.45;101097.09;4809043;29;19961;-80
2021/03/16 05:36:17;;;;;;;;;;;;;;;7.54;46.72;101111.13;4811514;29;19935;-80
2021/03/16 05:39:03;;;;;;;;;;;;;;;7.54;46.89;101112.03;4811067;29;19943;-80
2021/03/16 05:41:48;;;;;;;;;;;;;;;7.53;47.03;101115.53;4813494;29;20362;-79
2021/03/16 05:44:34;;;;;;;;;;;;;;;7.53;47.29;101112.91;4812938;29;19956;-79
2021/03/16 05:47:20;;;;;;;;;;;;;;;7.53;47.46;101114.69;4812436;29;19959;-79
2021/03/16 05:50:08;;;;;;;;;;;;;;;7.55;47.44;101123.41;4807393;29;20033;-79
2021/03/16 05:52:54;;;;;;;;;;;;;;;7.54;47.60;101117.28;4808558;29;20413;-80
2021/03/16 05:56:04;;;;;;;;;;;;;;;7.55;47.79;101126.94;4807561;29;19940;-79
2021/03/16 05:58:49;;;;;;;;;;;;;;;7.57;47.88;101124.28;4811724;29;20738;-79
2021/03/16 06:01:35;;;;;;;;;;;;;;;7.59;47.66;101126.03;4809218;29;19993;-80
2021/03/16 06:04:20;;;;;;;;;;;;;;;7.64;47.94;101132.13;4807979;29;20921;-79
2021/03/16 06:07:07;;;;;;;;;;;;;;;7.67;48.13;101132.97;4818891;29;20032;-79
2021/03/16 06:09:52;;;;;;;;;;;;;;;7.66;48.09;101140.00;4815568;29;19998;-80
2021/03/16 06:12:39;;;;;;;;;;;;;;;7.70;47.77;101143.50;4820591;29;20008;-79
2021/03/16 06:15:50;;;;;;;;;;;;;;;7.69;48.04;101142.59;4811154;29;20066;-78
2021/03/16 06:18:40;;;;;;;;;;;;;;;7.70;48.11;101140.84;4809143;29;20109;-79
2021/03/16 06:21:26;;;;;;;;;;;;;;;7.72;48.54;101141.69;4812246;29;19944;-81
2021/03/16 06:24:14;;;;;;;;;;;;;;;7.75;48.30;101152.22;4814613;29;20255;-79
2021/03/16 06:26:59;;;;;;;;;;;;;;;7.75;48.58;101155.72;4815372;29;19936;-78
2021/03/16 06:30:04;;;;;;;;;;;;;;;7.78;48.52;101157.44;4813817;29;20401;-80
2021/03/16 06:32:49;;;;;;;;;;;;;;;7.81;48.31;101167.94;4811272;29;20121;-80
2021/03/16 06:36:00;;;;;;;;;;;;;;;7.81;48.30;101168.84;4816452;29;19939;-79
2021/03/16 06:38:46;;;;;;;;;;;;;;;7.82;48.89;101167.94;4808680;29;19943;-78
2021/03/16 06:41:35;;;;;;;;;;;;;;;7.82;48.75;101180.25;4814035;29;19940;-79
2021/03/16 06:44:21;;;;;;;;;;;;;;;7.86;48.67;101181.09;4806974;29;19944;-83
2021/03/16 06:47:13;;;;;;;;;;;;;;;7.90;48.86;101181.03;4808249;29;20012;-78
2021/03/16 06:49:58;;;;;;;;;;;;;;;7.96;48.52;101185.38;4813313;29;20062;-78
2021/03/16 06:52:48;;;;;;;;;;;;;;;8.01;48.47;101186.22;4817942;29;19936;-79
2021/03/16 06:55:58;;;;;;;;;;;;;;;8.05;48.77;101189.69;4810341;29;19948;-77
2021/03/16 06:58:45;;;;;;;;;;;;;;;8.10;48.26;101196.66;4806257;29;19947;-76
2021/03/16 07:01:31;;;;;;;;;;;;;;;8.13;48.54;101206.31;4807027;29;19944;-76
2021/03/16 07:04:18;;;;;;;;;;;;;;;8.13;48.77;101206.31;4806965;29;20080;-79
2021/03/16 07:07:05;;;;;;;;;;;;;;;8.16;48.25;101198.34;4815913;29;19939;-77
2021/03/16 07:09:52;;;;;;;;;;;;;;;8.18;48.53;101201.88;4811342;29;19940;-78
2021/03/16 07:12:38;;;;;;;;;;;;;;;8.22;48.47;101205.31;4805987;29;19936;-74
2021/03/16 07:15:48;;;;;;;;;;;;;;;8.27;48.14;101208.78;4803860;29;20082;-75
2021/03/16 07:18:35;;;;;;;;;;;;;;;8.43;47.56;101215.66;4809926;29;19947;-74
2021/03/16 07:21:24;;;;;;;;;;;;;;;8.66;45.42;101217.19;4808646;29;19936;-74
2021/03/16 07:24:11;;;;;;;;;;;;;;;8.84;44.49;101218.72;4813336;29;19939;-74
2021/03/16 07:26:57;;;;;;;;;;;;;;;8.96;43.03;101215.91;4809302;29;19939;-74
2021/03/16 07:29:43;;;;;;;;;;;;;;;9.12;41.92;101218.34;4808628;29;19948;-74
2021/03/16 07:32:30;;;;;;;;;;;;;;;9.19;41.26;101224.41;4812158;29;19940;-74
2021/03/16 07:35:45;;;;;;;;;;;;;;;9.25;40.64;101226.97;4813168;29;19943;-75
2021/03/16 07:38:33;;;;;;;;;;;;;;;9.35;40.00;101235.63;4812949;29;20416;-74
2021/03/16 07:41:18;;;;;;;;;;;;;;;9.43;39.95;101236.41;4807809;29;20481;-74
2021/03/16 07:44:07;;;;;;;;;;;;;;;9.49;39.25;101233.66;4814176;29;19936;-74
2021/03/16 07:46:58;;;;;;;;;;;;;;;9.59;39.05;101237.03;4815007;29;19939;-74
2021/03/16 07:49:44;;;;;;;;;;;;;;;9.71;38.39;101238.63;4815690;29;19951;-75
2021/03/16 07:52:29;;;;;;;;;;;;;;;9.68;39.30;101243.94;4811860;29;20275;-74
2021/03/16 07:55:43;;;;;;;;;;;;;;;9.65;40.09;101260.69;4810148;29;19955;-74
2021/03/16 07:58:29;;;;;;;;;;;;;;;9.64;40.20;101258.97;4810054;29;19977;-74
2021/03/16 08:01:16;;;;;;;;;;;;;;;9.64;40.54;101259.84;4813478;29;20479;-74
2021/03/16 08:04:06;;;;;;;;;;;;;;;9.72;40.90;101266.78;4812881;29;19947;-74
2021/03/16 08:06:57;;;;;;;;;;;;;;;9.80;40.65;101263.09;4813980;29;19939;-74
2021/03/16 08:09:43;;;;;;;;;;;;;;;9.87;41.55;101268.31;4807700;29;20074;-74
2021/03/16 08:12:29;;;;;;;;;;;;;;;9.90;41.45;101277.06;4813949;29;20073;-74
2021/03/16 08:18:46;;;;;;;;;;;;;;;10.18;40.69;101281.00;4813474;29;19941;-74
2021/03/16 08:21:35;;;;;;;;;;;;;;;10.28;40.88;101280.84;4810549;29;19940;-74
2021/03/16 08:24:20;;;;;;;;;;;;;;;10.35;41.18;101278.97;4804653;29;19936;-74
2021/03/16 08:27:07;;;;;;;;;;;;;;;10.41;41.04;101283.28;4813558;29;20032;-75
2021/03/16 08:29:52;;;;;;;;;;;;;;;10.56;41.41;101293.59;4813239;29;19943;-75
2021/03/16 08:32:37;;;;;;;;;;;;;;;10.70;41.05;101289.78;4814604;29;19940;-74
2021/03/16 08:35:49;;;;;;;;;;;;;;;10.68;41.62;101288.97;4811099;29;19935;-75
2021/03/16 08:38:35;;;;;;;;;;;;;;;10.79;41.25;101303.75;4808814;29;20009;-74
2021/03/16 08:41:20;;;;;;;;;;;;;;;10.84;41.53;101308.06;4813398;29;20710;-74
2021/03/16 08:44:05;;;;;;;;;;;;;;;10.84;41.10;101302.78;4814780;29;19936;-74
2021/03/16 08:46:52;;;;;;;;;;;;;;;10.87;41.42;101308.84;4812199;29;20390;-74
2021/03/16 08:49:38;;;;;;;;;;;;;;;11.08;41.17;101315.53;4809874;29;20545;-75
2021/03/16 08:52:24;;;;;;;;;;;;;;;11.17;41.21;101308.28;4808021;29;20434;-75
2021/03/16 08:55:46;;;;;;;;;;;;;;;11.30;41.03;101323.00;4811648;29;19940;-75
2021/03/16 08:58:32;;;;;;;;;;;;;;;11.52;40.65;101327.84;4814065;29;20089;-75
2021/03/16 09:01:27;;;;;;;;;;;;;;;11.61;40.60;101328.50;4811832;29;19944;-75
2021/03/16 09:04:17;;;;;;;;;;;;;;;11.84;40.30;101328.91;4807990;29;19936;-75
2021/03/16 09:07:05;;;;;;;;;;;;;;;12.11;39.83;101341.53;4807899;29;19943;-75
2021/03/16 09:09:50;;;;;;;;;;;;;;;12.08;39.79;101336.31;4815932;29;19939;-75
2021/03/16 09:12:41;;;;;;;;;;;;;;;12.21;39.94;101336.88;4812080;29;20401;-75
2021/03/16 09:15:44;;;;;;;;;;;;;;;12.40;39.56;101341.72;4811109;29;20004;-75
2021/03/16 09:18:32;;;;;;;;;;;;;;;12.65;39.40;101339.28;4809418;29;19992;-74
2021/03/16 09:21:17;;;;;;;;;;;;;;;12.82;39.17;101344.13;4808430;29;20386;-75
2021/03/16 09:24:04;;;;;;;;;;;;;;;12.93;38.73;101349.16;4810772;29;19940;-75
2021/03/16 09:26:57;;;;;;;;;;;;;;;12.98;38.86;101346.38;4813701;29;20309;-74
2021/03/16 09:29:43;;;;;;;;;;;;;;;13.06;38.84;101361.16;4810142;29;19936;-75
2021/03/16 09:32:34;;;;;;;;;;;;;;;13.34;38.42;101355.06;4808475;29;19935;-75
2021/03/16 09:35:45;;;;;;;;;;;;;;;13.23;38.69;101352.72;4809782;29;19941;-75
2021/03/16 09:38:30;;;;;;;;;;;;;;;13.71;37.99;101356.66;4808270;29;20485;-75
2021/03/16 09:40:57;;;;;;;;;;;;;;;13.86;37.83;101349.13;4813371;29;20095;-75
2021/03/16 09:43:36;;;;;;;;;;;;;;;13.97;37.67;101351.44;4812478;29;19932;-75
2021/03/16 09:46:07;;;;;;;;;;;;;;;14.17;37.38;101356.09;4812433;29;19929;-75
2021/03/16 09:48:36;;;;;;;;;;;;;;;14.55;36.68;101349.50;4812339;29;20032;-75
2021/03/16 09:51:09;;;;;;;;;;;;;;;14.76;36.33;101363.00;4813668;29;19937;-75
2021/03/16 09:53:36;;;;;;;;;;;;;;;14.74;36.63;101359.56;4815783;29;19933;-75
2021/03/16 09:56:05;;;;;;;;;;;;;;;14.98;36.15;101370.25;4813783;29;20023;-75
2021/03/16 09:58:32;;;;;;;;;;;;;;;15.04;36.09;101370.91;4818519;29;20485;-76
2021/03/16 10:01:03;;;;;;;;;;;;;;;14.97;36.66;101358.75;4809822;29;19933;-75
2021/03/16 10:03:32;;;;;;;;;;;;;;;15.18;36.24;101366.88;4810480;29;19932;-75
2021/03/16 10:06:03;;;;;;;;;;;;;;;15.07;36.54;101372.59;4815583;29;19982;-75
2021/03/16 10:08:30;;;;;;;;;;;;;;;15.65;35.49;101368.66;4817638;29;19963;-75
2021/03/16 10:10:57;;;;;;;;;;;;;;;15.87;34.97;101366.91;4813208;29;19937;-75
2021/03/16 10:13:31;;;;;;;;;;;;;;;16.70;33.77;101367.09;4814779;29;19951;-75
2021/03/16 10:16:05;;;;;;;;;;;;;;;17.14;33.07;101377.66;4808751;29;20394;-75
2021/03/16 10:18:39;;;;;;;;;;;;;;;17.12;32.89;101381.34;4814015;29;20404;-75
2021/03/16 10:21:07;;;;;;;;;;;;;;;17.22;32.94;101385.34;4815517;29;19933;-75
2021/03/16 10:23:34;;;;;;;;;;;;;;;16.93;33.61;101375.00;4814429;29;19936;-75
2021/03/16 10:26:02;;;;;;;;;;;;;;;18.08;31.40;101373.31;4814741;29;19985;-75
2021/03/16 10:28:34;;;;;;;;;;;;;;;19.01;29.82;101386.53;4810502;29;19941;-75
2021/03/16 10:31:11;;;;;;;;;;;;;;;19.73;28.65;101382.59;4810328;29;19940;-75
2021/03/16 10:33:39;;;;;;;;;;;;;;;18.88;30.32;101388.94;4812587;29;19936;-75
2021/03/16 10:36:07;;;;;;;;;;;;;;;17.88;32.46;101395.63;4818720;29;19972;-75
2021/03/16 10:38:34;;;;;;;;;;;;;;;17.41;33.38;101398.72;4815169;29;19964;-76
2021/03/16 10:41:01;;;;;;;;;;;;;;;17.65;33.18;101391.38;4816615;29;20034;-75
2021/03/16 10:43:30;;;;;;;;;;;;;;;17.53;33.53;101400.84;4809322;29;19964;-76
2021/03/16 10:45:58;;;;;;;;;;;;;;;17.29;34.09;101399.28;4812606;29;19932;-76
2021/03/16 10:48:32;;;;;;;;;;;;;;;17.05;34.63;101399.47;4815360;29;20028;-76
2021/03/16 10:50:59;;;;;;;;;;;;;;;16.91;34.93;101402.72;4816606;29;19956;-76
2021/03/16 10:53:30;;;;;;;;;;;;;;;16.95;34.91;101404.31;4813331;29;19948;-76
2021/03/16 10:56:01;;;;;;;;;;;;;;;17.32;34.27;101399.13;4809621;29;19933;-75
2021/03/16 10:58:28;;;;;;;;;;;;;;;17.91;33.21;101392.81;4808890;29;20011;-75
2021/03/16 11:00:55;;;;;;;;;;;;;;;18.10;32.88;101383.94;4813089;29;20434;-75
2021/03/16 11:03:28;;;;;;;;;;;;;;;18.09;32.94;101393.75;4816057;29;19935;-75
2021/03/16 11:05:56;;;;;;;;;;;;;;;17.98;33.34;101400.56;4815681;29;20008;-76
2021/03/16 11:08:24;;;;;;;;;;;;;;;17.75;33.92;101406.06;4815776;29;19937;-76
2021/03/16 11:10:51;;;;;;;;;;;;;;;17.51;34.45;101402.72;4809002;29;21382;-75
2021/03/16 11:13:18;;;;;;;;;;;;;;;17.43;34.68;101407.56;4813020;29;20253;-76
2021/03/16 11:15:46;;;;;;;;;;;;;;;17.75;34.17;101407.84;4815847;29;19940;-76
2021/03/16 11:18:13;;;;;;;;;;;;;;;18.31;33.16;101406.09;4819638;29;19937;-75
2021/03/16 11:20:43;;;;;;;;;;;;;;;18.46;32.99;101411.63;4813380;29;20394;-76
2021/03/16 11:23:12;;;;;;;;;;;;;;;19.24;31.42;101404.09;4817861;29;19932;-76
2021/03/16 11:26:04;;;;;;;;;;;;;;;22.75;26.05;101406.31;4805937;29;20454;-75
2021/03/16 11:28:32;;;;;;;;;;;;;;;24.93;22.94;101410.31;4813099;29;19997;-76
2021/03/16 11:30:58;;;;;;;;;;;;;;;24.78;22.85;101408.78;4814389;29;19941;-76
2021/03/16 11:33:25;;;;;;;;;;;;;;;22.91;25.75;101415.06;4814052;29;20005;-76
2021/03/16 11:36:11;;;;;;;;;;;;;;;21.02;28.95;101421.75;4814900;29;20385;-76
2021/03/16 11:38:57;;;;;;;;;;;;;;;19.71;31.54;101422.09;4808392;29;20017;-76
2021/03/16 11:41:42;;;;;;;;;;;;;;;19.20;32.42;101423.94;4807148;29;19940;-76
2021/03/16 11:44:28;;;;;;;;;;;;;;;21.11;29.15;101417.66;4813858;29;20493;-76
2021/03/16 11:47:14;;;;;;;;;;;;;;;21.03;29.50;101426.19;4812771;29;19956;-76
2021/03/16 11:50:00;;;;;;;;;;;;;;;22.09;27.83;101423.19;4812727;29;20001;-76
2021/03/16 11:52:45;;;;;;;;;;;;;;;22.50;27.38;101416.06;4809335;29;20016;-76
2021/03/16 11:55:45;;;;;;;;;;;;;;;26.43;22.06;101409.13;4812334;29;19969;-76
2021/03/16 11:58:32;;;;;;;;;;;;;;;24.76;24.31;101416.19;4812196;29;20032;-76
2021/03/16 12:01:19;;;;;;;;;;;;;;;22.30;27.94;101422.72;4813259;29;19944;-76
2021/03/16 12:04:04;;;;;;;;;;;;;;;26.37;22.58;101414.19;4812702;29;20389;-76
2021/03/16 12:06:51;;;;;;;;;;;;;;;26.44;22.16;101410.00;4807888;29;19936;-76
2021/03/16 12:09:37;;;;;;;;;;;;;;;24.20;25.63;101421.22;4807564;29;20357;-76
2021/03/16 12:12:22;;;;;;;;;;;;;;;25.81;23.32;101416.06;4813946;29;20052;-76
2021/03/16 12:15:09;;;;;;;;;;;;;;;23.92;26.36;101416.97;4812911;29;19936;-76
2021/03/16 12:17:55;;;;;;;;;;;;;;;24.50;25.55;101408.19;4816418;29;20343;-76
2021/03/16 12:20:44;;;;;;;;;;;;;;;25.06;24.71;101410.22;4809442;29;20008;-76
2021/03/16 12:23:30;;;;;;;;;;;;;;;24.57;25.85;101412.16;4807603;29;20439;-76
2021/03/16 12:26:15;;;;;;;;;;;;;;;23.66;27.21;101414.28;4809455;29;19943;-76
2021/03/16 12:29:01;;;;;;;;;;;;;;;30.51;18.56;101403.25;4810402;29;19955;-76
2021/03/16 12:31:46;;;;;;;;;;;;;;;34.23;15.03;101401.81;4812254;29;19943;-76
2021/03/16 12:34:39;;;;;;;;;;;;;;;28.71;20.62;101408.94;4808728;29;20295;-76
2021/03/16 12:37:25;;;;;;;;;;;;;;;34.88;14.32;101399.56;4809234;29;20307;-77
2021/03/16 12:40:11;;;;;;;;;;;;;;;37.57;12.24;101406.81;4812698;29;19999;-77
2021/03/16 12:43:24;;;;;;;;;;;;;;;33.63;15.90;101412.41;4814943;29;20050;-77
2021/03/16 12:46:10;;;;;;;;;;;;;;;30.90;18.87;101410.19;4813057;29;19939;-77
2021/03/16 12:48:55;;;;;;;;;;;;;;;34.44;15.15;101403.91;4809723;29;19935;-77
2021/03/16 12:51:42;;;;;;;;;;;;;;;31.75;18.25;101410.34;4807544;29;19951;-77
2021/03/16 12:54:27;;;;;;;;;;;;;;;29.31;21.25;101415.97;4815543;29;20408;-77
2021/03/16 12:57:13;;;;;;;;;;;;;;;30.93;19.32;101408.00;4813518;29;19935;-76
2021/03/16 12:59:58;;;;;;;;;;;;;;;28.30;22.77;101408.19;4812283;29;20008;-77
2021/03/16 13:02:43;;;;;;;;;;;;;;;27.22;24.33;101407.81;4809807;29;20367;-77
2021/03/16 13:05:54;;;;;;;;;;;;;;;28.07;23.30;101413.06;4808860;29;20303;-76
2021/03/16 13:08:40;;;;;;;;;;;;;;;28.85;22.15;101404.03;4813518;29;20032;-77
2021/03/16 13:11:26;;;;;;;;;;;;;;;26.41;25.48;101404.81;4811208;29;20041;-77
2021/03/16 13:14:12;;;;;;;;;;;;;;;26.17;26.08;101411.31;4814791;29;19940;-77
2021/03/16 13:16:58;;;;;;;;;;;;;;;32.49;18.22;101401.47;4811837;29;21043;-76
2021/03/16 13:19:43;;;;;;;;;;;;;;;33.56;17.19;101405.94;4810766;29;19944;-76
2021/03/16 13:22:29;;;;;;;;;;;;;;;33.47;17.18;101409.75;4815793;29;20350;-76
2021/03/16 13:25:45;;;;;;;;;;;;;;;37.28;13.58;101405.19;4815632;29;20421;-77
2021/03/16 13:28:31;;;;;;;;;;;;;;;39.07;12.52;101394.72;4814621;29;19995;-77
2021/03/16 13:31:17;;;;;;;;;;;;;;;38.67;12.52;101409.41;4812574;29;19936;-77
2021/03/16 13:34:03;;;;;;;;;;;;;;;36.82;14.11;101401.91;4808781;29;20479;-77
2021/03/16 13:36:48;;;;;;;;;;;;;;;34.88;16.25;101403.19;4815150;29;19993;-77
2021/03/16 13:39:34;;;;;;;;;;;;;;;38.55;12.96;101404.75;4815909;29;19989;-77
2021/03/16 13:42:19;;;;;;;;;;;;;;;38.77;13.14;101410.94;4817475;29;19935;-77
2021/03/16 13:45:07;;;;;;;;;;;;;;;36.92;14.86;101414.47;4809260;29;20043;-77
2021/03/16 13:47:53;;;;;;;;;;;;;;;39.08;12.95;101412.19;4815007;29;19943;-77
2021/03/16 13:50:44;;;;;;;;;;;;;;;39.48;12.69;101409.28;4814820;29;19948;-77
2021/03/16 13:53:30;;;;;;;;;;;;;;;40.09;12.70;101416.28;4816711;29;20037;-77
2021/03/16 13:56:15;;;;;;;;;;;;;;;35.33;16.62;101416.06;4812267;29;20445;-77
2021/03/16 13:59:00;;;;;;;;;;;;;;;32.25;20.42;101419.56;4810558;29;19977;-77
2021/03/16 14:01:50;;;;;;;;;;;;;;;30.94;22.09;101417.94;4810579;29;19943;-77
2021/03/16 14:04:36;;;;;;;;;;;;;;;31.98;21.02;101428.91;4816725;29;19935;-77
2021/03/16 14:07:22;;;;;;;;;;;;;;;30.51;22.59;101426.94;4816491;29;19940;-77
2021/03/16 14:10:08;;;;;;;;;;;;;;;29.11;24.86;101432.34;4814065;29;20298;-77
2021/03/16 14:12:54;;;;;;;;;;;;;;;28.40;25.73;101438.97;4813497;29;19940;-77